Time;durP1;ratioP1;P1;durP2;ratioP2;P2;SDS_P1;SDS_P2;PMS_P1;PMS_P2;Temp;Humidity;BMP_temperature;BMP_pressure;BME280_temperature;BME280_humidity;BME280_pressure;Samples;Min_cycle;Max_cycle;Signal;HPM_P1;HPM_P2
2023/12/16 00:00:19;;;;;;;25.25;14.90;;;6.80;1.00;;;;;;5099693;28;20198;-89
2023/12/16 00:02:46;;;;;;;33.97;13.35;;;;;;;;;;5097882;28;20203;-87
2023/12/16 00:05:13;;;;;;;31.17;13.30;;;6.70;1.00;;;;;;5087950;28;20309;-89
2023/12/16 00:07:40;;;;;;;22.85;11.18;;;6.70;1.00;;;;;;5087197;28;20209;-88
2023/12/16 00:10:09;;;;;;;29.77;13.60;;;6.50;1.00;;;;;;5089962;28;20221;-88
2023/12/16 00:12:36;;;;;;;26.55;12.98;;;6.70;1.00;;;;;;5092921;28;20208;-88
2023/12/16 00:15:04;;;;;;;30.05;12.55;;;6.70;1.00;;;;;;5086980;28;20208;-88
2023/12/16 00:17:32;;;;;;;24.17;15.00;;;6.60;1.00;;;;;;5092582;28;20257;-86
2023/12/16 00:19:59;;;;;;;28.65;13.40;;;7.40;1.00;;;;;;5095437;28;20202;-88
2023/12/16 00:22:26;;;;;;;27.70;12.65;;;6.60;1.00;;;;;;5086799;28;20268;-87
2023/12/16 00:24:53;;;;;;;36.50;14.35;;;;;;;;;;5083961;28;20207;-88
2023/12/16 00:27:20;;;;;;;33.17;14.20;;;6.70;1.00;;;;;;5082277;28;20289;-88
2023/12/16 00:29:47;;;;;;;34.25;14.90;;;6.80;1.00;;;;;;5082877;28;20202;-88
2023/12/16 00:32:14;;;;;;;22.85;12.57;;;6.70;1.00;;;;;;5091989;28;20253;-88
2023/12/16 00:34:42;;;;;;;31.17;13.63;;;6.70;1.00;;;;;;5091335;28;20209;-89
2023/12/16 00:37:09;;;;;;;34.90;15.23;;;6.70;1.00;;;;;;5095031;28;20206;-88
2023/12/16 00:39:36;;;;;;;25.55;14.05;;;6.70;1.00;;;;;;5084999;28;20619;-89
2023/12/16 00:42:03;;;;;;;33.13;14.43;;;6.70;1.00;;;;;;5081357;28;20226;-88
2023/12/16 00:44:31;;;;;;;30.55;14.63;;;6.70;1.00;;;;;;5081322;28;20747;-88
2023/12/16 00:46:58;;;;;;;32.33;14.57;;;6.50;1.00;;;;;;5080933;28;20195;-87
2023/12/16 00:49:25;;;;;;;30.92;14.50;;;6.70;1.00;;;;;;5081071;28;20202;-88
2023/12/16 00:51:53;;;;;;;26.50;13.87;;;6.70;1.00;;;;;;5080709;28;20706;-88
2023/12/16 00:54:19;;;;;;;36.60;14.80;;;6.70;1.00;;;;;;5081450;28;20423;-87
2023/12/16 00:56:47;;;;;;;27.30;13.88;;;6.70;1.00;;;;;;5081345;28;20240;-87
2023/12/16 00:59:14;;;;;;;32.33;14.57;;;7.50;1.00;;;;;;5085614;28;20241;-89
2023/12/16 01:01:41;;;;;;;31.70;14.68;;;6.80;1.00;;;;;;5095176;28;20226;-88
2023/12/16 01:04:08;;;;;;;38.55;14.40;;;6.70;1.00;;;;;;5093734;28;20198;-90
2023/12/16 01:06:34;;;;;;;25.35;13.27;;;7.00;1.00;;;;;;5096041;28;20202;-89
2023/12/16 01:09:03;;;;;;;28.08;14.00;;;6.70;1.00;;;;;;5086977;28;20238;-89
2023/12/16 01:11:29;;;;;;;23.27;13.98;;;7.00;1.00;;;;;;5089441;28;20244;-90
2023/12/16 01:13:57;;;;;;;24.20;13.18;;;7.10;1.00;;;;;;5092008;28;20213;-90
2023/12/16 01:16:24;;;;;;;29.13;13.82;;;6.80;1.00;;;;;;5097787;28;20228;-88
2023/12/16 01:18:52;;;;;;;29.67;12.77;;;;;;;;;;5097877;28;20186;-87
2023/12/16 01:21:19;;;;;;;28.42;13.20;;;;;;;;;;5082520;28;20222;-88
2023/12/16 01:23:46;;;;;;;28.47;13.10;;;7.00;1.00;;;;;;5080156;28;20285;-88
2023/12/16 01:26:14;;;;;;;33.10;19.05;;;6.80;1.00;;;;;;5079193;28;20452;-88
2023/12/16 01:28:41;;;;;;;32.55;13.65;;;6.90;1.00;;;;;;5079655;28;20208;-88
2023/12/16 01:31:08;;;;;;;32.97;13.90;;;6.90;1.00;;;;;;5082579;28;20289;-88
2023/12/16 01:33:35;;;;;;;20.38;11.50;;;6.90;1.00;;;;;;5083109;28;20226;-88
2023/12/16 01:36:02;;;;;;;29.30;13.40;;;6.80;1.00;;;;;;5092548;28;20243;-88
2023/12/16 01:38:30;;;;;;;31.70;12.45;;;;;;;;;;5090786;28;20218;-89
2023/12/16 01:40:56;;;;;;;20.17;11.40;;;6.90;1.00;;;;;;5085368;28;20260;-89
2023/12/16 01:43:25;;;;;;;21.55;11.43;;;6.90;1.00;;;;;;5089353;28;20864;-88
2023/12/16 01:45:57;;;;;;;25.90;12.43;;;6.90;1.00;;;;;;5093930;28;20228;-89
2023/12/16 01:48:24;;;;;;;21.52;11.18;;;6.80;1.00;;;;;;5098199;28;20182;-89
2023/12/16 01:50:51;;;;;;;25.50;11.82;;;;;;;;;;5094436;28;20278;-89
2023/12/16 01:53:18;;;;;;;22.08;11.70;;;6.90;1.00;;;;;;5090362;28;20225;-88
2023/12/16 01:55:45;;;;;;;21.25;11.85;;;7.40;1.00;;;;;;5092868;28;20218;-88
2023/12/16 01:58:12;;;;;;;29.77;12.73;;;6.90;1.00;;;;;;5086605;28;20218;-89
2023/12/16 02:00:42;;;;;;;22.75;11.98;;;6.90;1.00;;;;;;5082147;28;20663;-88
2023/12/16 02:03:09;;;;;;;20.63;11.15;;;7.00;99.90;;;;;;5083939;28;20209;-88
2023/12/16 02:05:36;;;;;;;21.45;11.30;;;6.90;99.90;;;;;;5084194;28;20233;-88
2023/12/16 02:08:03;;;;;;;22.97;10.80;;;6.90;99.90;;;;;;5080873;28;20253;-88
2023/12/16 02:10:30;;;;;;;18.45;9.75;;;7.00;99.90;;;;;;5082445;28;20472;-88
2023/12/16 02:12:57;;;;;;;25.13;10.32;;;7.00;99.90;;;;;;5092480;28;20209;-90
2023/12/16 02:15:23;;;;;;;18.63;10.73;;;7.30;99.90;;;;;;5084106;28;20213;-89
2023/12/16 02:17:52;;;;;;;22.07;11.60;;;7.00;99.90;;;;;;5082098;28;20507;-89
2023/12/16 02:20:19;;;;;;;22.50;10.77;;;7.10;1.00;;;;;;5089881;28;20508;-90
2023/12/16 02:22:47;;;;;;;22.58;10.40;;;7.30;99.90;;;;;;5093733;28;20199;-89
2023/12/16 02:25:17;;;;;;;23.13;11.50;;;7.00;99.90;;;;;;5090225;28;20232;-88
2023/12/16 02:27:45;;;;;;;24.50;11.75;;;7.00;99.90;;;;;;5090863;28;20324;-89
2023/12/16 02:30:12;;;;;;;20.13;11.00;;;;;;;;;;5094178;28;20210;-87
2023/12/16 02:32:41;;;;;;;24.80;12.52;;;6.90;99.90;;;;;;5088584;28;20226;-88
2023/12/16 02:35:08;;;;;;;22.08;10.18;;;6.90;99.90;;;;;;5093224;28;20202;-87
2023/12/16 02:37:35;;;;;;;28.58;11.73;;;6.80;99.90;;;;;;5086870;28;20751;-87
2023/12/16 02:40:02;;;;;;;20.42;10.25;;;6.80;99.90;;;;;;5084769;28;20210;-88
2023/12/16 02:42:31;;;;;;;22.20;13.02;;;6.80;99.90;;;;;;5084680;28;20299;-88
2023/12/16 02:44:58;;;;;;;18.70;11.30;;;6.80;99.90;;;;;;5083852;28;20735;-88
2023/12/16 02:47:24;;;;;;;26.63;12.80;;;7.40;99.90;;;;;;5083978;28;20288;-88
2023/12/16 02:49:52;;;;;;;30.45;12.95;;;;;;;;;;5087900;28;20204;-89
2023/12/16 02:52:18;;;;;;;31.35;11.55;;;6.60;1.00;;;;;;5085931;28;20276;-88
2023/12/16 02:54:45;;;;;;;34.60;12.70;;;6.80;99.90;;;;;;5083847;28;20289;-88
2023/12/16 02:57:12;;;;;;;22.58;12.70;;;6.80;99.90;;;;;;5082349;28;20293;-87
2023/12/16 02:59:40;;;;;;;17.42;11.52;;;6.80;99.90;;;;;;5094081;28;20281;-89
2023/12/16 03:02:07;;;;;;;27.92;12.38;;;6.80;99.90;;;;;;5088994;28;20218;-88
2023/12/16 03:04:34;;;;;;;26.40;13.05;;;6.80;99.90;;;;;;5085314;28;20233;-89
2023/12/16 03:07:01;;;;;;;26.95;12.60;;;6.80;99.90;;;;;;5082077;28;20194;-88
2023/12/16 03:09:28;;;;;;;31.50;13.05;;;6.60;1.00;;;;;;5081548;28;20213;-88
2023/12/16 03:11:55;;;;;;;26.25;12.30;;;6.90;99.90;;;;;;5081814;28;20226;-87
2023/12/16 03:14:22;;;;;;;24.73;12.48;;;6.80;99.90;;;;;;5084867;28;20214;-88
2023/12/16 03:16:50;;;;;;;31.45;14.38;;;6.90;99.90;;;;;;5082836;28;20238;-87
2023/12/16 03:19:17;;;;;;;26.10;13.43;;;7.00;99.90;;;;;;5083727;28;20289;-88
2023/12/16 03:21:44;;;;;;;27.95;12.70;;;7.00;99.90;;;;;;5087822;28;20283;-88
2023/12/16 03:24:12;;;;;;;23.85;12.07;;;7.00;99.90;;;;;;5092672;28;20198;-87
2023/12/16 03:26:39;;;;;;;30.45;13.07;;;6.90;99.90;;;;;;5090923;28;20207;-88
2023/12/16 03:29:06;;;;;;;33.28;15.02;;;6.90;1.00;;;;;;5084194;28;20293;-87
2023/12/16 03:31:32;;;;;;;29.40;13.57;;;6.90;99.90;;;;;;5097985;28;20245;-88
2023/12/16 03:34:01;;;;;;;37.05;14.88;;;6.90;99.90;;;;;;5094559;28;20210;-89
2023/12/16 03:36:28;;;;;;;29.30;16.00;;;6.70;1.00;;;;;;5099991;28;20246;-88
2023/12/16 03:38:55;;;;;;;23.00;13.90;;;7.00;1.00;;;;;;5098979;28;20496;-88
2023/12/16 03:41:22;;;;;;;33.90;14.50;;;7.00;1.00;;;;;;5089974;28;20234;-87
2023/12/16 03:43:50;;;;;;;21.90;14.60;;;7.00;1.00;;;;;;5090444;28;20270;-89
2023/12/16 03:46:17;;;;;;;34.27;15.07;;;7.10;1.00;;;;;;5085935;28;20229;-87
2023/12/16 03:48:44;;;;;;;34.38;16.00;;;7.40;99.90;;;;;;5089426;28;20444;-88
2023/12/16 03:51:13;;;;;;;34.90;17.67;;;7.10;99.90;;;;;;5090971;28;20338;-88
2023/12/16 03:53:39;;;;;;;36.38;15.13;;;7.10;99.90;;;;;;5093520;28;20191;-88
2023/12/16 03:56:07;;;;;;;28.27;16.17;;;7.10;99.90;;;;;;5094330;28;20202;-88
2023/12/16 03:58:34;;;;;;;30.38;15.50;;;7.10;99.90;;;;;;5086298;28;20248;-88
2023/12/16 04:01:02;;;;;;;24.60;16.50;;;7.10;99.90;;;;;;5087674;28;20227;-88
2023/12/16 04:03:28;;;;;;;26.10;16.98;;;7.00;99.90;;;;;;5091964;28;20233;-88
2023/12/16 04:05:55;;;;;;;29.95;16.02;;;7.10;99.90;;;;;;5085947;28;20213;-87
2023/12/16 04:08:23;;;;;;;31.83;16.52;;;7.10;99.90;;;;;;5085623;28;20652;-87
2023/12/16 04:10:50;;;;;;;29.27;16.25;;;7.00;99.90;;;;;;5082619;28;20309;-87
2023/12/16 04:13:17;;;;;;;35.00;16.02;;;7.10;99.90;;;;;;5084790;28;20241;-87
2023/12/16 04:15:44;;;;;;;36.15;17.00;;;6.90;99.90;;;;;;5086099;28;20202;-88
2023/12/16 04:18:11;;;;;;;25.98;15.35;;;;;;;;;;5083949;28;20276;-88
2023/12/16 04:20:38;;;;;;;38.85;16.98;;;7.00;99.90;;;;;;5088557;28;20245;-87
2023/12/16 04:23:05;;;;;;;26.80;15.18;;;7.00;99.90;;;;;;5088228;28;20262;-88
2023/12/16 04:25:33;;;;;;;35.35;16.30;;;6.90;99.90;;;;;;5089582;28;20301;-88
2023/12/16 04:28:00;;;;;;;36.30;17.23;;;6.90;99.90;;;;;;5087648;28;20229;-88
2023/12/16 04:30:26;;;;;;;36.20;16.27;;;6.90;1.00;;;;;;5092719;28;20190;-88
2023/12/16 04:32:53;;;;;;;37.20;15.80;;;6.90;99.90;;;;;;5095560;28;20244;-88
2023/12/16 04:35:20;;;;;;;37.35;16.95;;;6.90;99.90;;;;;;5094408;28;20197;-89
2023/12/16 04:37:47;;;;;;;32.40;16.30;;;6.90;99.90;;;;;;5097182;28;20257;-87
2023/12/16 04:40:14;;;;;;;31.75;15.25;;;7.30;1.00;;;;;;5097364;28;20209;-87
2023/12/16 04:42:43;;;;;;;32.50;17.33;;;6.90;99.90;;;;;;5096103;28;20267;-87
2023/12/16 04:45:11;;;;;;;30.80;15.77;;;6.80;1.00;;;;;;5094447;28;20233;-89
2023/12/16 04:47:37;;;;;;;41.35;18.58;;;6.80;1.00;;;;;;5099234;28;20244;-89
2023/12/16 04:50:05;;;;;;;33.00;16.80;;;6.90;99.90;;;;;;5095753;28;20226;-88
2023/12/16 04:52:32;;;;;;;36.30;16.27;;;6.80;99.90;;;;;;5085494;28;20329;-88
2023/12/16 04:54:59;;;;;;;27.15;16.45;;;6.90;99.90;;;;;;5085496;28;20560;-87
2023/12/16 04:57:26;;;;;;;38.08;15.57;;;6.90;99.90;;;;;;5089984;28;20265;-88
2023/12/16 04:59:54;;;;;;;34.57;16.40;;;6.80;99.90;;;;;;5089371;28;20202;-89
2023/12/16 05:02:21;;;;;;;43.10;17.40;;;6.80;99.90;;;;;;5089514;28;20493;-89
2023/12/16 05:04:48;;;;;;;30.40;15.63;;;6.90;1.00;;;;;;5092872;28;20198;-90
2023/12/16 05:07:15;;;;;;;40.28;15.75;;;;;;;;;;5080227;28;20206;-88
2023/12/16 05:09:42;;;;;;;35.13;17.27;;;6.80;1.00;;;;;;5081928;28;20269;-87
2023/12/16 05:12:09;;;;;;;34.05;18.02;;;6.80;99.90;;;;;;5080401;28;20226;-88
2023/12/16 05:14:36;;;;;;;33.55;16.30;;;;;;;;;;5080731;28;20576;-89
2023/12/16 05:17:04;;;;;;;41.05;20.10;;;6.90;99.90;;;;;;5082267;28;20208;-88
2023/12/16 05:19:32;;;;;;;30.48;16.85;;;;;;;;;;5081089;28;20222;-87
2023/12/16 05:21:58;;;;;;;34.55;17.58;;;6.80;99.90;;;;;;5082025;28;20248;-88
2023/12/16 05:24:25;;;;;;;32.10;14.67;;;6.70;99.90;;;;;;5083169;28;20208;-87
2023/12/16 05:26:52;;;;;;;23.75;13.80;;;6.80;99.90;;;;;;5088740;28;20449;-88
2023/12/16 05:29:19;;;;;;;25.02;15.32;;;6.70;99.90;;;;;;5090375;28;20287;-88
2023/12/16 05:31:45;;;;;;;23.58;14.27;;;6.80;99.90;;;;;;5086766;28;20698;-88
2023/12/16 05:34:14;;;;;;;30.20;15.07;;;6.70;99.90;;;;;;5083826;28;20229;-88
2023/12/16 05:36:40;;;;;;;34.25;15.38;;;6.60;99.90;;;;;;5084845;28;20288;-88
2023/12/16 05:39:09;;;;;;;30.20;15.30;;;6.60;99.90;;;;;;5082566;28;20221;-88
2023/12/16 05:41:36;;;;;;;35.13;14.60;;;6.50;99.90;;;;;;5078700;28;20284;-88
2023/12/16 05:44:03;;;;;;;34.40;17.20;;;6.50;99.90;;;;;;5080757;28;20633;-88
2023/12/16 05:46:30;;;;;;;40.63;21.15;;;6.60;99.90;;;;;;5079784;28;20748;-88
2023/12/16 05:48:57;;;;;;;43.33;25.05;;;6.50;99.90;;;;;;5080144;28;20285;-88
2023/12/16 05:51:25;;;;;;;39.25;19.98;;;6.60;99.90;;;;;;5081124;28;20308;-88
2023/12/16 05:53:52;;;;;;;38.53;22.40;;;6.50;99.90;;;;;;5078183;28;20225;-88
2023/12/16 05:56:19;;;;;;;36.33;18.05;;;6.50;99.90;;;;;;5083487;28;20290;-88
2023/12/16 05:58:45;;;;;;;25.90;14.75;;;6.50;99.90;;;;;;5082893;28;20593;-88
2023/12/16 06:01:19;;;;;;;29.23;15.80;;;6.50;99.90;;;;;;5083383;28;20287;-88
2023/12/16 06:03:46;;;;;;;24.50;14.43;;;6.50;99.90;;;;;;5083303;28;20189;-88
2023/12/16 06:06:13;;;;;;;32.92;15.27;;;6.50;99.90;;;;;;5084242;28;20293;-88
2023/12/16 06:08:41;;;;;;;30.48;11.65;;;6.50;99.90;;;;;;5085246;28;20202;-89
2023/12/16 06:11:11;;;;;;;31.75;15.57;;;6.50;99.90;;;;;;5086031;28;20285;-87
2023/12/16 06:13:39;;;;;;;31.17;13.40;;;6.50;99.90;;;;;;5092655;28;20198;-88
2023/12/16 06:16:07;;;;;;;22.15;14.38;;;6.50;99.90;;;;;;5091491;28;20624;-87
2023/12/16 06:18:34;;;;;;;40.15;14.30;;;6.60;99.90;;;;;;5083424;28;20222;-89
2023/12/16 06:21:01;;;;;;;23.00;12.60;;;6.40;99.90;;;;;;5082103;28;20242;-88
2023/12/16 06:23:29;;;;;;;24.00;12.20;;;6.70;99.90;;;;;;5085254;28;20217;-88
2023/12/16 06:25:57;;;;;;;17.83;10.70;;;6.30;99.90;;;;;;5090386;28;20202;-88
2023/12/16 06:28:24;;;;;;;18.25;11.55;;;6.80;99.90;;;;;;5082065;28;20194;-88
2023/12/16 06:30:50;;;;;;;19.67;10.48;;;6.80;99.90;;;;;;5081888;28;20253;-89
2023/12/16 06:33:17;;;;;;;25.08;11.48;;;6.80;99.90;;;;;;5088532;28;20213;-88
2023/12/16 06:35:44;;;;;;;25.42;11.70;;;6.80;99.90;;;;;;5090534;28;20297;-88
2023/12/16 06:38:11;;;;;;;20.92;10.35;;;6.80;99.90;;;;;;5082738;28;20225;-88
2023/12/16 06:40:38;;;;;;;21.38;11.15;;;6.80;99.90;;;;;;5081407;28;20260;-88
2023/12/16 06:43:06;;;;;;;30.35;11.32;;;6.80;99.90;;;;;;5083392;28;20281;-90
2023/12/16 06:45:34;;;;;;;22.27;12.07;;;6.70;99.90;;;;;;5083416;28;20297;-88
2023/12/16 06:48:01;;;;;;;24.85;11.07;;;6.80;99.40;;;;;;5083352;28;20198;-88
2023/12/16 06:50:28;;;;;;;18.58;9.43;;;6.80;82.80;;;;;;5082437;28;20344;-87
2023/12/16 06:52:55;;;;;;;20.67;10.95;;;6.80;33.80;;;;;;5082806;28;20210;-88
2023/12/16 06:55:22;;;;;;;19.88;9.90;;;7.30;25.70;;;;;;5082800;28;20289;-88
2023/12/16 06:57:49;;;;;;;22.05;9.10;;;6.90;1.00;;;;;;5082431;28;20647;-88
2023/12/16 07:00:17;;;;;;;22.25;10.85;;;7.10;52.60;;;;;;5082719;28;20206;-88
2023/12/16 07:02:44;;;;;;;19.73;10.45;;;6.90;1.00;;;;;;5084778;28;20292;-88
2023/12/16 07:05:11;;;;;;;17.98;8.68;;;6.90;1.00;;;;;;5084063;28;20614;-88
2023/12/16 07:07:38;;;;;;;23.88;10.10;;;6.90;1.00;;;;;;5082152;28;20293;-89
2023/12/16 07:10:06;;;;;;;22.30;9.35;;;6.90;1.00;;;;;;5083397;28;20202;-88
2023/12/16 07:12:33;;;;;;;14.50;8.70;;;6.90;1.00;;;;;;5082279;28;20253;-88
2023/12/16 07:15:00;;;;;;;18.83;8.98;;;6.90;1.00;;;;;;5081079;28;20574;-88
2023/12/16 07:17:29;;;;;;;23.38;9.88;;;6.90;1.00;;;;;;5082462;28;20308;-88
2023/12/16 07:19:56;;;;;;;22.73;10.23;;;6.90;1.00;;;;;;5082094;28;20650;-88
2023/12/16 07:22:23;;;;;;;21.65;7.70;;;7.00;1.00;;;;;;5095282;28;20233;-87
2023/12/16 07:24:50;;;;;;;15.18;8.88;;;7.10;1.00;;;;;;5098804;28;20213;-87
2023/12/16 07:27:17;;;;;;;22.20;8.65;;;7.00;1.00;;;;;;5095220;28;20213;-88
2023/12/16 07:29:43;;;;;;;18.93;7.93;;;7.00;1.00;;;;;;5093432;28;20259;-88
2023/12/16 07:32:10;;;;;;;18.65;9.52;;;7.00;1.00;;;;;;5089179;28;20547;-88
2023/12/16 07:34:40;;;;;;;17.48;9.07;;;7.20;1.00;;;;;;5083006;28;20304;-87
2023/12/16 07:37:07;;;;;;;20.98;8.10;;;7.10;1.00;;;;;;5082099;28;20269;-87
2023/12/16 07:39:34;;;;;;;16.77;7.97;;;7.20;99.90;;;;;;5082731;28;20254;-88
2023/12/16 07:42:01;;;;;;;19.15;8.50;;;7.10;99.90;;;;;;5081635;28;20234;-87
2023/12/16 07:44:28;;;;;;;17.48;7.18;;;7.10;99.90;;;;;;5091496;28;20293;-87
2023/12/16 07:47:22;;;;;;;19.67;8.75;;;7.10;99.90;;;;;;5095467;28;20208;-88
2023/12/16 07:49:50;;;;;;;18.70;8.30;;;7.10;99.90;;;;;;5099511;28;20197;-88
2023/12/16 07:52:21;;;;;;;12.02;6.93;;;7.10;99.90;;;;;;5094654;28;20523;-87
2023/12/16 07:54:48;;;;;;;12.32;7.15;;;7.00;99.90;;;;;;5086990;28;20202;-87
2023/12/16 07:57:15;;;;;;;14.65;8.30;;;;;;;;;;5091851;28;20233;-88
2023/12/16 07:59:42;;;;;;;21.35;8.50;;;7.10;99.90;;;;;;5081917;28;20264;-87
2023/12/16 08:02:09;;;;;;;12.88;7.45;;;;;;;;;;5083214;28;20232;-88
2023/12/16 08:04:37;;;;;;;15.60;8.63;;;;;;;;;;5082505;28;20210;-88
2023/12/16 08:07:05;;;;;;;13.70;7.40;;;7.40;99.90;;;;;;5090232;28;20590;-88
2023/12/16 08:09:32;;;;;;;21.77;6.60;;;7.20;47.40;;;;;;5086531;28;20206;-89
2023/12/16 08:11:59;;;;;;;16.77;8.10;;;7.40;99.90;;;;;;5083401;28;20281;-86
2023/12/16 08:14:26;;;;;;;12.25;7.68;;;7.30;24.30;;;;;;5080830;28;20296;-87
2023/12/16 08:16:53;;;;;;;21.73;8.13;;;7.30;23.90;;;;;;5082444;28;20205;-88
2023/12/16 08:19:20;;;;;;;10.85;7.10;;;7.30;18.70;;;;;;5084550;28;20486;-87
2023/12/16 08:21:47;;;;;;;13.68;6.57;;;7.30;1.00;;;;;;5084330;28;20245;-88
2023/12/16 08:24:15;;;;;;;19.52;7.10;;;7.40;1.00;;;;;;5083759;28;20237;-88
2023/12/16 08:26:42;;;;;;;14.43;6.47;;;7.40;1.00;;;;;;5082720;28;20213;-88
2023/12/16 08:29:09;;;;;;;15.85;8.63;;;7.30;1.00;;;;;;5079411;28;20883;-88
2023/12/16 08:31:36;;;;;;;16.70;7.70;;;7.50;1.00;;;;;;5080934;28;20776;-88
2023/12/16 08:34:03;;;;;;;16.35;6.57;;;;;;;;;;5082495;28;20441;-88
2023/12/16 08:36:30;;;;;;;11.63;6.57;;;;;;;;;;5081496;28;20201;-88
2023/12/16 08:38:57;;;;;;;14.88;6.97;;;7.40;1.00;;;;;;5081483;28;20508;-88
2023/12/16 08:41:26;;;;;;;15.35;7.13;;;7.40;1.00;;;;;;5080845;28;20290;-87
2023/12/16 08:43:54;;;;;;;11.20;6.63;;;7.40;1.00;;;;;;5080590;28;20202;-86
2023/12/16 08:46:23;;;;;;;16.55;9.77;;;7.50;99.90;;;;;;5083625;28;20429;-87
2023/12/16 08:48:50;;;;;;;16.33;7.40;;;7.50;99.90;;;;;;5090108;28;20205;-87
2023/12/16 08:51:21;;;;;;;20.87;10.93;;;7.50;99.90;;;;;;5085233;28;20495;-87
2023/12/16 08:53:48;;;;;;;11.18;8.57;;;7.50;99.90;;;;;;5079620;28;20940;-88
2023/12/16 08:56:17;;;;;;;14.87;7.67;;;7.50;1.00;;;;;;5080572;28;20209;-88
2023/12/16 08:58:46;;;;;;;14.35;6.82;;;7.50;99.90;;;;;;5080541;28;20453;-87
2023/12/16 09:01:13;;;;;;;12.52;8.07;;;;;;;;;;5081258;28;20578;-88
2023/12/16 09:03:43;;;;;;;12.73;6.07;;;7.50;99.90;;;;;;5081713;28;20202;-88
2023/12/16 09:06:12;;;;;;;8.83;6.03;;;7.60;99.90;;;;;;5081179;28;20588;-88
2023/12/16 09:08:39;;;;;;;16.90;7.82;;;7.60;99.90;;;;;;5080777;28;20455;-87
2023/12/16 09:11:07;;;;;;;11.82;5.85;;;7.60;99.90;;;;;;5084582;28;20228;-89
2023/12/16 09:13:34;;;;;;;15.30;5.80;;;7.60;99.90;;;;;;5081114;28;20274;-88
2023/12/16 09:16:03;;;;;;;11.90;5.60;;;7.60;99.90;;;;;;5084783;28;20289;-88
2023/12/16 09:18:29;;;;;;;12.75;6.43;;;7.60;99.90;;;;;;5089039;28;20487;-87
2023/12/16 09:20:57;;;;;;;10.40;4.80;;;;;;;;;;5089582;28;20230;-88
2023/12/16 09:23:23;;;;;;;10.73;7.60;;;7.70;99.90;;;;;;5092434;28;20449;-88
2023/12/16 09:25:52;;;;;;;12.20;6.77;;;7.70;99.90;;;;;;5089420;28;20516;-88
2023/12/16 09:28:20;;;;;;;9.50;6.30;;;;;;;;;;5092608;28;20448;-87
2023/12/16 09:30:50;;;;;;;15.13;5.53;;;;;;;;;;5089654;28;20821;-86
2023/12/16 09:33:19;;;;;;;8.50;5.20;;;7.80;99.90;;;;;;5085862;28;20903;-88
2023/12/16 09:35:46;;;;;;;11.27;5.20;;;;;;;;;;5089822;28;20634;-88
2023/12/16 09:38:13;;;;;;;10.07;4.53;;;7.80;99.90;;;;;;5087701;28;20234;-87
2023/12/16 09:40:41;;;;;;;10.47;4.83;;;7.70;99.90;;;;;;5089001;28;20510;-87
2023/12/16 09:43:16;;;;;;;14.43;5.37;;;7.70;99.90;;;;;;5097865;28;20460;-87
2023/12/16 09:45:48;;;;;;;12.20;5.00;;;7.60;99.90;;;;;;5098571;28;20415;-88
2023/12/16 09:48:18;;;;;;;7.40;5.50;;;7.40;99.90;;;;;;5097378;28;20417;-87
2023/12/16 09:50:45;;;;;;;10.40;5.33;;;7.70;99.90;;;;;;5097346;28;20473;-87
2023/12/16 09:53:12;;;;;;;9.87;4.33;;;8.00;27.30;;;;;;5088248;28;20511;-87
2023/12/16 09:55:40;;;;;;;14.73;4.87;;;7.80;99.90;;;;;;5085355;28;20414;-88
2023/12/16 09:58:07;;;;;;;9.57;5.57;;;7.80;99.90;;;;;;5085351;28;20535;-88
2023/12/16 10:00:38;;;;;;;16.83;5.40;;;7.70;94.90;;;;;;5087335;28;20516;-87
2023/12/16 10:03:04;;;;;;;4.70;4.20;;;7.90;29.90;;;;;;5088051;28;20464;-88
2023/12/16 10:05:35;;;;;;;12.13;5.17;;;7.90;1.00;;;;;;5085342;28;20472;-88
2023/12/16 10:08:04;;;;;;;7.57;4.40;;;7.90;1.00;;;;;;5083645;28;20436;-86
2023/12/16 10:10:31;;;;;;;8.73;4.43;;;;;;;;;;5084273;28;21008;-87
2023/12/16 10:13:03;;;;;;;7.05;4.50;;;8.00;1.00;;;;;;5082975;28;20471;-87
2023/12/16 10:15:31;;;;;;;11.50;4.40;;;8.00;1.00;;;;;;5083154;28;20187;-88
2023/12/16 10:17:58;;;;;;;8.87;4.40;;;8.00;1.00;;;;;;5082754;28;20437;-87
2023/12/16 10:20:25;;;;;;;8.23;3.60;;;8.10;1.00;;;;;;5083750;28;20516;-87
2023/12/16 10:22:53;;;;;;;6.97;4.27;;;8.10;1.00;;;;;;5083908;28;20452;-87
2023/12/16 10:25:20;;;;;;;12.60;5.00;;;8.00;1.00;;;;;;5086016;28;20441;-89
2023/12/16 10:27:49;;;;;;;5.40;3.60;;;9.30;1.00;;;;;;5085524;28;20517;-88
2023/12/16 10:30:16;;;;;;;5.70;3.90;;;8.10;1.00;;;;;;5091108;28;20451;-87
2023/12/16 10:32:42;;;;;;;7.33;3.77;;;7.90;1.00;;;;;;5084807;28;20203;-88
2023/12/16 10:35:09;;;;;;;10.27;4.30;;;7.90;1.00;;;;;;5082487;28;20478;-88
2023/12/16 10:37:47;;;;;;;17.70;4.17;;;7.90;1.00;;;;;;5085335;28;20502;-87
2023/12/16 10:40:16;;;;;;;5.73;4.10;;;8.00;1.00;;;;;;5083056;28;20540;-89
2023/12/16 10:42:43;;;;;;;7.40;4.43;;;8.20;1.00;;;;;;5095243;28;20456;-86
2023/12/16 10:45:11;;;;;;;10.80;4.20;;;7.90;1.00;;;;;;5098482;28;20443;-88
2023/12/16 10:47:38;;;;;;;15.40;6.07;;;8.00;1.00;;;;;;5098634;28;20214;-86
2023/12/16 10:50:07;;;;;;;11.73;4.47;;;8.00;1.00;;;;;;5093986;28;20468;-87
2023/12/16 10:52:38;;;;;;;8.57;4.03;;;8.00;1.00;;;;;;5086675;28;20929;-86
2023/12/16 10:55:07;;;;;;;15.00;6.37;;;8.10;1.00;;;;;;5086836;28;20523;-89
2023/12/16 10:57:44;;;;;;;7.33;4.47;;;8.10;1.00;;;;;;5086458;28;20440;-87
2023/12/16 11:00:16;;;;;;;8.00;4.43;;;8.40;1.00;;;;;;5084909;28;20551;-87
2023/12/16 11:02:48;;;;;;;12.37;4.90;;;8.20;1.00;;;;;;5085185;28;20460;-88
2023/12/16 11:05:20;;;;;;;9.50;4.23;;;8.10;99.90;;;;;;5087964;28;20486;-89
2023/12/16 11:07:49;;;;;;;17.67;5.13;;;8.30;99.90;;;;;;5094790;28;20523;-86
2023/12/16 11:10:18;;;;;;;8.67;5.00;;;;;;;;;;5100324;28;20437;-86
2023/12/16 11:12:46;;;;;;;7.83;4.33;;;8.30;99.90;;;;;;5099734;28;20445;-87
2023/12/16 11:15:14;;;;;;;11.47;4.30;;;8.40;99.90;;;;;;5099870;28;20516;-88
2023/12/16 11:17:48;;;;;;;8.53;4.53;;;8.40;99.90;;;;;;5099134;28;20445;-88
2023/12/16 11:20:18;;;;;;;7.93;4.80;;;8.20;1.00;;;;;;5099738;28;20532;-87
2023/12/16 11:22:47;;;;;;;6.50;3.90;;;8.40;99.90;;;;;;5088664;28;20424;-88
2023/12/16 11:25:18;;;;;;;9.57;4.20;;;8.50;1.00;;;;;;5086158;28;20419;-87
2023/12/16 11:27:47;;;;;;;11.60;4.20;;;9.00;1.00;;;;;;5085494;28;20414;-87
2023/12/16 11:30:15;;;;;;;11.97;4.03;;;8.60;99.90;;;;;;5085000;28;20512;-87
2023/12/16 11:32:45;;;;;;;11.15;4.78;;;8.50;99.90;;;;;;5087680;28;20485;-87
2023/12/16 11:35:12;;;;;;;10.03;3.83;;;8.50;99.90;;;;;;5088313;28;20213;-87
2023/12/16 11:37:42;;;;;;;7.10;3.63;;;8.60;99.90;;;;;;5087574;28;20433;-87
2023/12/16 11:40:39;;;;;;;8.07;3.17;;;8.50;99.90;;;;;;5084965;28;20489;-85
2023/12/16 11:43:07;;;;;;;6.07;3.17;;;8.50;99.90;;;;;;5092327;28;20297;-88
2023/12/16 11:45:38;;;;;;;5.50;3.23;;;8.60;99.90;;;;;;5090501;28;20472;-88
2023/12/16 11:48:05;;;;;;;16.43;3.97;;;8.60;99.90;;;;;;5088531;28;20517;-87
2023/12/16 11:50:34;;;;;;;8.37;4.10;;;8.50;99.90;;;;;;5095179;28;20452;-87
2023/12/16 11:53:01;;;;;;;15.27;4.93;;;8.50;99.90;;;;;;5094046;28;20936;-87
2023/12/16 11:55:28;;;;;;;8.67;3.47;;;8.60;99.90;;;;;;5086563;28;20419;-87
2023/12/16 11:57:55;;;;;;;7.33;5.03;;;;;;;;;;5084909;28;20441;-87
2023/12/16 12:00:24;;;;;;;7.63;5.50;;;8.40;99.90;;;;;;5086105;28;20498;-89
2023/12/16 12:02:51;;;;;;;19.13;4.50;;;9.30;99.90;;;;;;5081458;28;20576;-87
2023/12/16 12:05:18;;;;;;;11.90;4.60;;;;;;;;;;5083490;28;20445;-88
2023/12/16 12:07:45;;;;;;;15.53;4.30;;;8.60;99.90;;;;;;5083373;28;20445;-88
2023/12/16 12:10:12;;;;;;;11.10;4.03;;;8.60;99.90;;;;;;5084119;28;20475;-88
2023/12/16 12:12:39;;;;;;;7.63;4.43;;;8.60;99.90;;;;;;5086725;28;20574;-88
2023/12/16 12:15:07;;;;;;;12.17;4.47;;;8.60;99.90;;;;;;5085036;28;20445;-87
2023/12/16 12:17:36;;;;;;;8.20;3.80;;;8.60;99.90;;;;;;5085724;28;20570;-87
2023/12/16 12:20:04;;;;;;;13.03;4.43;;;8.50;99.90;;;;;;5084293;28;20518;-87
2023/12/16 12:22:31;;;;;;;10.73;4.13;;;8.60;99.90;;;;;;5083527;28;20556;-88
2023/12/16 12:24:58;;;;;;;11.63;4.00;;;8.60;99.90;;;;;;5084305;28;20510;-88
2023/12/16 12:27:25;;;;;;;13.00;4.37;;;8.60;99.90;;;;;;5083763;28;20444;-88
2023/12/16 12:29:55;;;;;;;7.63;4.13;;;8.50;99.90;;;;;;5083675;28;20445;-88
2023/12/16 12:32:22;;;;;;;4.67;3.80;;;8.60;99.90;;;;;;5082325;28;20516;-87
2023/12/16 12:34:59;;;;;;;9.83;3.50;;;8.50;99.90;;;;;;5084858;28;20531;-88
2023/12/16 12:37:27;;;;;;;11.90;4.30;;;8.60;99.90;;;;;;5087946;28;20444;-87
2023/12/16 12:39:53;;;;;;;16.10;4.23;;;8.50;99.90;;;;;;5089741;28;20437;-88
2023/12/16 12:42:20;;;;;;;11.07;4.30;;;8.60;99.90;;;;;;5081176;28;20472;-87
2023/12/16 12:44:52;;;;;;;10.70;3.60;;;8.50;99.90;;;;;;5082475;28;20539;-88
2023/12/16 12:47:28;;;;;;;11.73;4.30;;;8.50;99.90;;;;;;5081155;28;20440;-88
2023/12/16 12:49:55;;;;;;;8.13;3.57;;;8.50;99.90;;;;;;5082156;28;20437;-88
2023/12/16 12:52:35;;;;;;;8.30;3.73;;;8.60;99.90;;;;;;5082459;28;20468;-88
2023/12/16 12:55:02;;;;;;;12.97;3.83;;;8.50;99.90;;;;;;5084965;28;20503;-88